createdAt,value
2022-10-28T11:13:35.393Z,17.40
2022-10-28T11:21:25.276Z,17.80
2022-10-28T11:24:17.430Z,17.80
2022-10-28T11:29:31.477Z,17.70
2022-10-28T11:32:17.796Z,18.00
2022-10-28T11:37:34.102Z,17.90
2022-10-28T11:40:13.300Z,18.20
2022-10-28T11:48:35.170Z,17.90
2022-10-28T12:04:31.485Z,18.20
2022-10-28T12:07:05.496Z,18.20
2022-10-28T12:10:04.808Z,18.20
2022-10-28T12:12:44.810Z,18.20
2022-10-28T12:15:40.423Z,18.30
2022-10-28T12:18:44.925Z,18.30
2022-10-28T12:23:53.184Z,18.40
2022-10-28T12:26:24.682Z,18.40
2022-10-28T12:29:00.741Z,18.40
2022-10-28T12:31:32.518Z,18.50
2022-10-28T12:34:03.532Z,18.50
2022-10-28T12:47:14.687Z,18.80
2022-10-28T12:50:12.149Z,19.00
2022-10-28T12:52:56.015Z,18.80
2022-10-28T12:55:44.115Z,18.80
2022-10-28T12:58:10.631Z,18.90
2022-10-28T13:03:12.587Z,19.00
2022-10-28T13:08:38.779Z,18.90
2022-10-28T13:19:38.077Z,19.00
2022-10-28T13:22:30.225Z,19.10
2022-10-28T13:25:18.342Z,19.10
2022-10-28T13:27:45.538Z,19.10
2022-10-28T13:30:20.139Z,19.10
2022-10-28T13:32:50.255Z,19.10
2022-10-28T13:35:29.336Z,19.20
2022-10-28T13:37:57.051Z,19.20
2022-10-28T13:40:33.743Z,19.20
2022-10-28T13:43:01.428Z,19.20
2022-10-28T13:45:54.259Z,19.20
2022-10-28T13:48:29.800Z,19.20
2022-10-28T13:51:11.607Z,19.20
2022-10-28T13:53:45.024Z,19.20
2022-10-28T13:56:52.464Z,19.30
2022-10-28T13:59:26.385Z,19.30
2022-10-28T14:02:07.635Z,19.40
2022-10-28T14:04:37.858Z,19.30
2022-10-28T14:07:09.169Z,19.40
2022-10-28T14:09:37.137Z,19.30
2022-10-28T14:12:17.604Z,19.40
2022-10-28T14:14:56.314Z,19.30
2022-10-28T14:17:27.048Z,19.20
2022-10-28T14:19:54.484Z,19.20
2022-10-28T14:22:34.225Z,19.20
2022-10-28T14:25:01.463Z,19.20
2022-10-28T14:27:46.146Z,19.40
2022-10-28T14:30:15.627Z,19.20
2022-10-28T14:32:49.519Z,19.20
2022-10-28T14:35:16.025Z,19.10
2022-10-28T14:38:15.037Z,19.20
2022-10-28T14:41:06.301Z,19.10
2022-10-28T14:43:58.537Z,19.10
2022-10-28T14:46:41.693Z,19.10
2022-10-28T14:49:28.216Z,19.10
2022-10-28T14:51:56.838Z,19.10
2022-10-28T14:54:42.353Z,19.10
2022-10-28T14:57:09.085Z,19.10
2022-10-28T14:59:42.456Z,19.00
2022-10-28T15:02:21.112Z,19.00
2022-10-28T15:04:57.627Z,19.10
2022-10-28T15:07:24.458Z,19.00
2022-10-28T15:09:53.451Z,19.00
2022-10-28T15:12:22.401Z,19.00
2022-10-28T15:14:56.673Z,19.00
2022-10-28T15:17:28.683Z,18.90
2022-10-28T15:19:57.621Z,18.90
2022-10-28T15:22:30.653Z,18.90
2022-10-28T15:25:00.648Z,18.90
2022-10-28T15:27:38.954Z,18.90
2022-10-28T15:30:20.642Z,18.80
2022-10-28T15:32:47.334Z,18.80
2022-10-28T15:35:35.570Z,18.80
2022-10-28T15:38:19.104Z,18.80
2022-10-28T15:40:45.618Z,18.80
2022-10-28T15:43:25.970Z,18.80
2022-10-28T15:45:52.503Z,18.80
2022-10-28T15:48:23.726Z,18.80
2022-10-28T15:51:11.249Z,18.70
2022-10-28T15:53:53.955Z,18.70
2022-10-28T15:56:22.687Z,18.70
2022-10-28T15:59:16.418Z,18.70
2022-10-28T16:01:43.027Z,18.60
2022-10-28T16:04:32.290Z,18.70
2022-10-28T16:07:07.754Z,18.60
2022-10-28T16:09:44.686Z,18.60
2022-10-28T16:12:23.345Z,18.60
2022-10-28T16:15:13.861Z,18.60
2022-10-28T16:17:42.787Z,18.60
2022-10-28T16:20:18.523Z,18.60
2022-10-28T16:22:46.470Z,18.60
2022-10-28T16:25:20.521Z,18.50
2022-10-28T16:27:47.996Z,18.50
2022-10-28T16:30:15.247Z,18.50
2022-10-28T16:32:45.554Z,18.50
2022-10-28T16:35:21.029Z,18.50
2022-10-28T16:37:53.731Z,18.50
2022-10-28T16:40:49.611Z,18.50
2022-10-28T16:43:15.407Z,18.40
2022-10-28T16:45:42.020Z,18.50
2022-10-28T16:48:13.824Z,18.50
2022-10-28T16:50:42.614Z,18.40
2022-10-28T16:53:12.406Z,18.40
2022-10-28T16:55:38.925Z,18.40
2022-10-28T16:58:05.795Z,18.40
2022-10-28T17:00:32.491Z,18.40
2022-10-28T17:02:59.149Z,18.40
2022-10-28T17:05:25.754Z,18.40
2022-10-28T17:07:55.809Z,18.40
2022-10-28T17:10:23.425Z,18.40
2022-10-28T17:12:50.533Z,18.40
2022-10-28T17:15:17.495Z,18.40
2022-10-28T17:17:44.087Z,18.30
2022-10-28T17:20:11.076Z,18.30
2022-10-28T17:22:39.826Z,18.40
2022-10-28T17:25:07.448Z,18.40
2022-10-28T17:27:33.983Z,18.30
2022-10-28T17:30:00.682Z,18.30
2022-10-28T17:32:27.243Z,18.30
2022-10-28T17:34:53.815Z,18.30
2022-10-28T17:37:20.352Z,18.30
2022-10-28T17:39:46.913Z,18.30
2022-10-28T17:42:13.554Z,18.30
2022-10-28T17:44:40.221Z,18.30
2022-10-28T17:47:06.778Z,18.30
2022-10-28T17:49:34.227Z,18.30
2022-10-28T17:52:00.855Z,18.30
2022-10-28T17:54:28.076Z,18.30
2022-10-28T17:56:54.604Z,18.30
2022-10-28T17:59:21.116Z,18.30
2022-10-28T18:01:47.748Z,18.30
2022-10-28T18:04:14.405Z,18.30
2022-10-28T18:06:40.933Z,18.30
2022-10-28T18:09:11.668Z,18.30
2022-10-28T18:11:39.761Z,18.30
2022-10-28T18:14:06.347Z,18.20
2022-10-28T18:16:33.582Z,18.20
2022-10-28T18:19:03.869Z,18.20
2022-10-28T18:21:30.406Z,18.10
2022-10-28T18:24:03.452Z,18.10
2022-10-28T18:26:38.266Z,18.10
2022-10-28T18:29:07.971Z,18.10
2022-10-28T18:31:34.680Z,18.10
2022-10-28T18:34:04.481Z,18.10
2022-10-28T18:36:36.655Z,18.00
2022-10-28T18:39:07.581Z,18.00
2022-10-28T18:41:38.195Z,18.00
2022-10-28T18:44:05.873Z,18.00
2022-10-28T18:46:35.133Z,18.00
